Time,TemperatureF,DewpointF,PressureIn,WindDirection,WindDirectionDegrees,WindSpeedMPH,WindSpeedGustMPH,Humidity,HourlyPrecipIn,Conditions,Clouds,dailyrainin,SoftwareType,DateUTC
2013-09-04 00:00:00,60.6,53.7,29.97,SE,135,0.0,0.0,78,0.00,,---,0.00,VWS V14.01,2013-09-04 07:00:00,
2013-09-04 00:02:00,60.4,53.6,29.97,SE,135,0.0,0.0,78,0.00,,---,0.00,VWS V14.01,2013-09-04 07:02:00,
2013-09-04 00:07:00,60.4,53.9,29.97,SE,135,0.0,0.0,79,0.00,,---,0.00,VWS V14.01,2013-09-04 07:07:00,
2013-09-04 00:10:00,60.4,53.9,29.97,SE,135,0.0,0.0,79,0.00,,---,0.00,VWS V14.01,2013-09-04 07:10:00,
2013-09-04 00:12:00,60.4,53.9,29.97,SE,135,0.0,0.0,79,0.00,,---,0.00,VWS V14.01,2013-09-04 07:12:00,
2013-09-04 00:17:00,60.4,53.9,29.97,SE,135,0.0,0.0,79,0.00,,---,0.00,VWS V14.01,2013-09-04 07:17:00,
2013-09-04 00:20:00,60.4,53.9,29.97,SE,135,0.0,0.0,79,0.00,,---,0.00,VWS V14.01,2013-09-04 07:20:00,
2013-09-04 00:22:00,60.4,53.9,29.97,SE,135,0.0,0.0,79,0.00,,---,0.00,VWS V14.01,2013-09-04 07:22:00,
2013-09-04 00:27:00,60.1,53.6,29.97,SE,135,0.0,0.0,79,0.00,,---,0.00,VWS V14.01,2013-09-04 07:27:00,
2013-09-04 00:30:00,60.1,53.6,29.97,SE,135,0.0,0.0,79,0.00,,---,0.00,VWS V14.01,2013-09-04 07:30:00,
2013-09-04 00:32:00,60.1,53.6,29.97,SE,135,0.0,0.0,79,0.00,,---,0.00,VWS V14.01,2013-09-04 07:32:00,
2013-09-04 00:37:00,60.3,54.1,29.97,ESE,112,0.0,0.0,80,0.00,,---,0.00,VWS V14.01,2013-09-04 07:37:00,
2013-09-04 00:40:00,60.3,54.1,29.97,ESE,112,0.0,0.0,80,0.00,,---,0.00,VWS V14.01,2013-09-04 07:40:00,
2013-09-04 00:42:00,60.3,54.1,29.97,ESE,112,0.0,0.0,80,0.00,,---,0.00,VWS V14.01,2013-09-04 07:42:00,
2013-09-04 00:47:00,60.1,53.9,29.97,ESE,112,0.0,0.0,80,0.00,,---,0.00,VWS V14.01,2013-09-04 07:47:00,
2013-09-04 00:50:00,60.1,53.9,29.97,ESE,112,0.0,0.0,80,0.00,,---,0.00,VWS V14.01,2013-09-04 07:50:00,
2013-09-04 00:52:00,60.1,53.9,29.97,ESE,112,0.0,0.0,80,0.00,,---,0.00,VWS V14.01,2013-09-04 07:52:00,
2013-09-04 00:57:00,60.1,53.9,29.97,ESE,112,0.0,0.0,80,0.00,,---,0.00,VWS V14.01,2013-09-04 07:57:00,
2013-09-04 01:00:00,60.1,53.9,29.97,ESE,112,0.0,0.0,80,0.00,,---,0.00,VWS V14.01,2013-09-04 08:00:00,
2013-09-04 01:02:00,59.9,53.7,29.97,ESE,112,0.0,0.0,80,0.00,,---,0.00,VWS V14.01,2013-09-04 08:02:00,
2013-09-04 01:07:00,59.9,53.7,29.97,ESE,112,0.0,0.0,80,0.00,,---,0.00,VWS V14.01,2013-09-04 08:07:00,
2013-09-04 01:10:00,59.9,53.7,29.97,ESE,112,0.0,0.0,80,0.00,,---,0.00,VWS V14.01,2013-09-04 08:10:00,
2013-09-04 01:12:00,59.9,53.7,29.97,ESE,112,0.0,0.0,80,0.00,,---,0.00,VWS V14.01,2013-09-04 08:12:00,
2013-09-04 01:17:00,59.9,53.7,29.97,ESE,112,0.0,0.0,80,0.00,,---,0.00,VWS V14.01,2013-09-04 08:17:00,
2013-09-04 01:20:00,59.7,53.5,29.97,ESE,112,0.0,0.0,80,0.00,,---,0.00,VWS V14.01,2013-09-04 08:20:00,
2013-09-04 01:22:00,59.7,53.5,29.97,ESE,112,0.0,0.0,80,0.00,,---,0.00,VWS V14.01,2013-09-04 08:22:00,
2013-09-04 01:27:00,59.7,53.9,29.97,ESE,112,0.0,0.0,81,0.00,,---,0.00,VWS V14.01,2013-09-04 08:27:00,
2013-09-04 01:30:00,59.7,53.9,29.97,ESE,112,0.0,0.0,81,0.00,,---,0.00,VWS V14.01,2013-09-04 08:30:00,
2013-09-04 01:32:00,59.5,53.7,29.97,ESE,112,0.0,0.0,81,0.00,,---,0.00,VWS V14.01,2013-09-04 08:32:00,
2013-09-04 01:37:00,59.5,53.7,29.97,SE,135,0.0,0.0,81,0.00,,---,0.00,VWS V14.01,2013-09-04 08:37:00,
2013-09-04 01:40:00,59.5,53.7,29.97,SE,135,0.0,0.0,81,0.00,,---,0.00,VWS V14.01,2013-09-04 08:40:00,
2013-09-04 01:42:00,59.7,53.9,29.97,SE,135,0.0,0.0,81,0.00,,---,0.00,VWS V14.01,2013-09-04 08:42:00,
2013-09-04 01:47:00,59.7,53.9,29.97,SE,135,0.0,0.0,81,0.00,,---,0.00,VWS V14.01,2013-09-04 08:47:00,
2013-09-04 01:50:00,59.7,53.9,29.97,SE,135,0.0,0.0,81,0.00,,---,0.00,VWS V14.01,2013-09-04 08:50:00,
2013-09-04 01:52:00,59.7,53.9,29.97,SE,135,0.0,0.0,81,0.00,,---,0.00,VWS V14.01,2013-09-04 08:52:00,
2013-09-04 01:57:00,59.5,54.0,29.97,SE,135,0.0,0.0,82,0.00,,---,0.00,VWS V14.01,2013-09-04 08:57:00,
2013-09-04 02:00:00,59.4,53.9,29.97,SE,135,0.0,0.0,82,0.00,,---,0.00,VWS V14.01,2013-09-04 09:00:00,
2013-09-04 02:02:00,59.4,53.9,29.97,SE,135,0.0,0.0,82,0.00,,---,0.00,VWS V14.01,2013-09-04 09:02:00,
2013-09-04 02:07:00,59.4,53.9,29.97,SE,135,0.0,0.0,82,0.00,,---,0.00,VWS V14.01,2013-09-04 09:07:00,
2013-09-04 02:10:00,59.4,53.9,29.97,SE,135,0.0,0.0,82,0.00,,---,0.00,VWS V14.01,2013-09-04 09:10:00,
2013-09-04 02:13:00,59.4,53.9,29.97,SE,135,0.0,0.0,82,0.00,,---,0.00,VWS V14.01,2013-09-04 09:13:00,
2013-09-04 02:18:00,59.2,54.0,29.97,SE,135,0.0,0.0,83,0.00,,---,0.00,VWS V14.01,2013-09-04 09:18:00,
2013-09-04 02:20:00,59.2,54.0,29.97,SE,135,0.0,0.0,83,0.00,,---,0.00,VWS V14.01,2013-09-04 09:20:00,
2013-09-04 02:23:00,59.2,54.0,29.97,SE,135,0.0,0.0,83,0.00,,---,0.00,VWS V14.01,2013-09-04 09:23:00,
2013-09-04 02:28:00,59.2,54.0,29.97,SE,135,0.0,0.0,83,0.00,,---,0.00,VWS V14.01,2013-09-04 09:28:00,
2013-09-04 02:30:00,59.0,53.8,29.97,SE,135,0.0,0.0,83,0.00,,---,0.00,VWS V14.01,2013-09-04 09:30:00,
2013-09-04 02:33:00,59.2,54.0,29.97,SE,135,0.0,0.0,83,0.00,,---,0.00,VWS V14.01,2013-09-04 09:33:00,
2013-09-04 02:38:00,59.0,53.8,29.97,SE,135,0.0,0.0,83,0.00,,---,0.00,VWS V14.01,2013-09-04 09:38:00,
2013-09-04 02:40:00,59.0,54.2,29.97,SE,135,0.0,0.0,84,0.00,,---,0.00,VWS V14.01,2013-09-04 09:40:00,
2013-09-04 02:43:00,59.0,54.2,29.97,SE,135,0.0,0.0,84,0.00,,---,0.00,VWS V14.01,2013-09-04 09:43:00,
2013-09-04 02:48:00,59.0,54.2,29.97,SE,135,0.0,0.0,84,0.00,,---,0.00,VWS V14.01,2013-09-04 09:48:00,
2013-09-04 02:50:00,59.0,54.2,29.97,SE,135,0.0,0.0,84,0.00,,---,0.00,VWS V14.01,2013-09-04 09:50:00,
2013-09-04 02:53:00,59.0,54.5,29.97,SE,135,0.0,0.0,85,0.00,,---,0.00,VWS V14.01,2013-09-04 09:53:00,
2013-09-04 02:58:00,59.0,54.5,29.97,SE,135,0.0,0.0,85,0.00,,---,0.00,VWS V14.01,2013-09-04 09:58:00,
2013-09-04 03:00:00,59.0,54.5,29.97,SE,135,0.0,0.0,85,0.00,,---,0.00,VWS V14.01,2013-09-04 10:00:00,
2013-09-04 03:03:00,59.0,54.5,29.97,SE,135,0.0,0.0,85,0.00,,---,0.00,VWS V14.01,2013-09-04 10:03:00,
2013-09-04 03:08:00,59.0,54.5,29.97,SE,135,0.0,0.0,85,0.00,,---,0.00,VWS V14.01,2013-09-04 10:08:00,
2013-09-04 03:10:00,59.0,54.8,29.97,SSE,158,0.0,0.0,86,0.00,,---,0.00,VWS V14.01,2013-09-04 10:10:00,
2013-09-04 03:13:00,59.0,54.5,29.97,SSE,158,0.0,0.0,85,0.00,,---,0.00,VWS V14.01,2013-09-04 10:13:00,
2013-09-04 03:18:00,59.0,54.5,29.97,SSE,158,0.0,0.0,85,0.00,,---,0.00,VWS V14.01,2013-09-04 10:18:00,
2013-09-04 03:20:00,59.0,54.8,29.97,SSE,158,0.0,0.0,86,0.00,,---,0.00,VWS V14.01,2013-09-04 10:20:00,
2013-09-04 03:23:00,58.8,54.7,29.97,SSE,158,0.0,0.0,86,0.00,,---,0.00,VWS V14.01,2013-09-04 10:23:00,
2013-09-04 03:28:00,58.8,55.0,29.97,SSE,158,0.0,0.0,87,0.00,,---,0.00,VWS V14.01,2013-09-04 10:28:00,
2013-09-04 03:30:00,58.8,55.0,29.97,SSE,158,0.0,0.0,87,0.00,,---,0.00,VWS V14.01,2013-09-04 10:30:00,
2013-09-04 03:33:00,58.8,55.0,29.97,SSE,158,0.0,0.0,87,0.00,,---,0.00,VWS V14.01,2013-09-04 10:33:00,
2013-09-04 03:38:00,58.8,55.0,29.97,SSE,158,0.0,0.0,87,0.00,,---,0.00,VWS V14.01,2013-09-04 10:38:00,
2013-09-04 03:40:00,58.8,55.0,29.97,SSE,158,0.0,0.0,87,0.00,,---,0.00,VWS V14.01,2013-09-04 10:40:00,
2013-09-04 03:43:00,58.8,55.0,29.97,SSE,158,0.0,0.0,87,0.00,,---,0.00,VWS V14.01,2013-09-04 10:43:00,
2013-09-04 03:48:00,58.8,55.0,29.97,SSE,158,0.0,0.0,87,0.00,,---,0.00,VWS V14.01,2013-09-04 10:48:00,
2013-09-04 03:50:00,58.8,55.0,29.97,SSE,158,0.0,0.0,87,0.00,,---,0.00,VWS V14.01,2013-09-04 10:50:00,
2013-09-04 03:53:00,58.8,55.0,29.97,SSE,158,0.0,0.0,87,0.00,,---,0.00,VWS V14.01,2013-09-04 10:53:00,
2013-09-04 03:58:00,58.8,55.0,29.97,SSE,158,0.0,0.0,87,0.00,,---,0.00,VWS V14.01,2013-09-04 10:58:00,
2013-09-04 04:00:00,58.8,55.0,29.97,SSE,158,0.0,0.0,87,0.00,,---,0.00,VWS V14.01,2013-09-04 11:00:00,
2013-09-04 04:03:00,58.6,54.8,29.97,SSE,158,2.0,2.0,87,0.00,,---,0.00,VWS V14.01,2013-09-04 11:03:00,
2013-09-04 04:08:00,58.6,55.1,29.97,SE,135,0.0,2.0,88,0.00,,---,0.00,VWS V14.01,2013-09-04 11:08:00,
2013-09-04 04:10:00,58.6,55.1,29.97,SE,135,0.0,2.0,88,0.00,,---,0.00,VWS V14.01,2013-09-04 11:10:00,
2013-09-04 04:13:00,58.6,55.1,29.97,SSE,158,0.0,0.0,88,0.00,,---,0.00,VWS V14.01,2013-09-04 11:13:00,
2013-09-04 04:18:00,58.6,55.1,29.97,SSE,158,0.0,0.0,88,0.00,,---,0.00,VWS V14.01,2013-09-04 11:18:00,
2013-09-04 04:20:00,58.6,55.1,29.97,SE,135,2.0,2.0,88,0.00,,---,0.00,VWS V14.01,2013-09-04 11:20:00,
2013-09-04 04:23:00,58.6,55.1,29.97,SE,135,2.0,2.0,88,0.00,,---,0.00,VWS V14.01,2013-09-04 11:23:00,
2013-09-04 04:28:00,58.6,55.4,29.97,SE,135,2.0,2.0,89,0.00,,---,0.00,VWS V14.01,2013-09-04 11:28:00,
2013-09-04 04:30:00,58.6,55.4,29.97,SE,135,2.0,2.0,89,0.00,,---,0.00,VWS V14.01,2013-09-04 11:30:00,
2013-09-04 04:33:00,58.6,55.4,29.97,SE,135,0.0,2.0,89,0.00,,---,0.00,VWS V14.01,2013-09-04 11:33:00,
2013-09-04 04:38:00,58.6,55.4,29.97,SE,135,0.0,2.0,89,0.00,,---,0.00,VWS V14.01,2013-09-04 11:38:00,
2013-09-04 04:40:00,58.6,55.4,29.97,SE,135,0.0,2.0,89,0.00,,---,0.00,VWS V14.01,2013-09-04 11:40:00,
2013-09-04 04:43:00,58.6,55.4,29.97,SE,135,1.3,1.3,89,0.00,,---,0.00,VWS V14.01,2013-09-04 11:43:00,
2013-09-04 04:48:00,58.6,55.7,29.97,SE,135,0.0,1.3,90,0.00,,---,0.00,VWS V14.01,2013-09-04 11:48:00,
2013-09-04 04:50:00,58.8,55.9,29.97,SE,135,0.0,1.3,90,0.00,,---,0.00,VWS V14.01,2013-09-04 11:50:00,
2013-09-04 04:53:00,58.8,55.9,29.97,SSE,158,0.0,0.0,90,0.00,,---,0.00,VWS V14.01,2013-09-04 11:53:00,
2013-09-04 04:58:00,58.8,55.9,29.97,SE,135,0.0,0.0,90,0.00,,---,0.00,VWS V14.01,2013-09-04 11:58:00,
2013-09-04 05:00:00,58.8,55.9,29.94,SE,135,0.0,0.0,90,0.00,,---,0.00,VWS V14.01,2013-09-04 12:00:00,
2013-09-04 05:03:00,58.8,55.9,29.94,SE,135,1.3,1.3,90,0.00,,---,0.00,VWS V14.01,2013-09-04 12:03:00,
2013-09-04 05:08:00,58.8,55.9,29.94,SE,135,1.3,1.3,90,0.00,,---,0.00,VWS V14.01,2013-09-04 12:08:00,
2013-09-04 05:10:00,58.8,55.9,29.94,SE,135,0.0,1.3,90,0.00,,---,0.00,VWS V14.01,2013-09-04 12:10:00,
2013-09-04 05:13:00,58.8,55.9,29.94,SE,135,0.0,0.0,90,0.00,,---,0.00,VWS V14.01,2013-09-04 12:13:00,
2013-09-04 05:18:00,58.8,55.9,29.94,SE,135,0.0,0.0,90,0.00,,---,0.00,VWS V14.01,2013-09-04 12:18:00,
2013-09-04 05:20:00,58.8,55.9,29.94,SE,135,0.0,0.0,90,0.00,,---,0.00,VWS V14.01,2013-09-04 12:20:00,
2013-09-04 05:23:00,58.8,55.9,29.94,SE,135,0.0,0.0,90,0.00,,---,0.00,VWS V14.01,2013-09-04 12:23:00,
2013-09-04 05:28:00,58.8,55.9,29.94,SE,135,1.1,1.6,90,0.00,,---,0.00,VWS V14.01,2013-09-04 12:28:00,
2013-09-04 05:30:00,58.8,55.9,29.97,SE,135,1.1,1.6,90,0.00,,---,0.00,VWS V14.01,2013-09-04 12:30:00,
2013-09-04 05:33:00,58.8,55.9,29.97,SE,135,0.0,1.6,90,0.00,,---,0.00,VWS V14.01,2013-09-04 12:33:00,
2013-09-04 05:38:00,58.8,55.9,29.97,SE,135,0.0,1.6,90,0.00,,---,0.00,VWS V14.01,2013-09-04 12:38:00,
2013-09-04 05:40:00,58.8,55.9,29.97,SE,135,0.0,1.6,90,0.00,,---,0.00,VWS V14.01,2013-09-04 12:40:00,
2013-09-04 05:43:00,58.8,55.9,29.97,SSE,158,1.1,1.1,90,0.00,,---,0.00,VWS V14.01,2013-09-04 12:43:00,
2013-09-04 05:48:00,58.8,56.2,29.97,SSE,158,0.0,1.1,91,0.00,,---,0.00,VWS V14.01,2013-09-04 12:48:00,
2013-09-04 05:50:00,58.8,56.2,29.97,SE,135,0.0,1.1,91,0.00,,---,0.00,VWS V14.01,2013-09-04 12:50:00,
2013-09-04 05:53:00,58.8,56.2,29.97,SE,135,0.0,0.0,91,0.00,,---,0.00,VWS V14.01,2013-09-04 12:53:00,
2013-09-04 05:58:00,58.6,56.0,29.97,SE,135,0.9,0.9,91,0.00,,---,0.00,VWS V14.01,2013-09-04 12:58:00,
2013-09-04 06:00:00,58.6,56.0,29.94,SE,135,0.9,0.9,91,0.00,,---,0.00,VWS V14.01,2013-09-04 13:00:00,
2013-09-04 06:03:00,58.6,56.0,29.94,SE,135,0.9,0.9,91,0.00,,---,0.00,VWS V14.01,2013-09-04 13:03:00,
2013-09-04 06:08:00,58.6,56.0,29.94,SE,135,0.0,0.9,91,0.00,,---,0.00,VWS V14.01,2013-09-04 13:08:00,
2013-09-04 06:10:00,58.6,56.0,29.94,SE,135,0.0,0.9,91,0.00,,---,0.00,VWS V14.01,2013-09-04 13:10:00,
2013-09-04 06:13:00,58.6,56.0,29.94,SE,135,0.0,0.0,91,0.00,,---,0.00,VWS V14.01,2013-09-04 13:13:00,
2013-09-04 06:18:00,58.5,55.8,29.97,SE,135,3.1,3.1,91,0.00,,---,0.00,VWS V14.01,2013-09-04 13:18:00,
2013-09-04 06:20:00,58.5,55.8,29.97,SE,135,3.1,3.1,91,0.00,,---,0.00,VWS V14.01,2013-09-04 13:20:00,
2013-09-04 06:23:00,58.5,55.8,29.97,SE,135,0.0,3.1,91,0.00,,---,0.00,VWS V14.01,2013-09-04 13:23:00,
2013-09-04 06:28:00,58.5,55.8,29.97,SSE,158,0.0,3.1,91,0.00,,---,0.00,VWS V14.01,2013-09-04 13:28:00,
2013-09-04 06:30:00,58.5,55.8,29.97,SSE,158,0.0,3.1,91,0.00,,---,0.00,VWS V14.01,2013-09-04 13:30:00,
2013-09-04 06:33:00,58.5,55.8,29.97,SSE,158,0.0,0.0,91,0.00,,---,0.00,VWS V14.01,2013-09-04 13:33:00,
2013-09-04 06:38:00,58.5,55.8,29.97,SSE,158,0.0,0.0,91,0.00,,---,0.00,VWS V14.01,2013-09-04 13:38:00,
2013-09-04 06:40:00,58.5,55.8,29.97,SSE,158,0.0,0.0,91,0.00,,---,0.00,VWS V14.01,2013-09-04 13:40:00,
2013-09-04 06:44:00,58.5,56.2,29.97,SSE,158,0.0,0.0,92,0.00,,---,0.00,VWS V14.01,2013-09-04 13:44:00,
2013-09-04 06:49:00,58.5,56.2,29.97,SE,135,0.0,1.3,92,0.00,,---,0.00,VWS V14.01,2013-09-04 13:49:00,
2013-09-04 06:50:00,58.5,56.2,29.97,SE,135,0.0,1.3,92,0.00,,---,0.00,VWS V14.01,2013-09-04 13:50:00,
2013-09-04 06:54:00,58.3,56.0,29.97,SE,135,0.0,0.0,92,0.00,,---,0.00,VWS V14.01,2013-09-04 13:54:00,
2013-09-04 06:59:00,58.3,56.0,29.97,SE,135,1.3,1.3,92,0.00,,---,0.00,VWS V14.01,2013-09-04 13:59:00,
2013-09-04 07:00:00,58.3,56.0,29.97,SE,135,1.3,1.3,92,0.00,,---,0.00,VWS V14.01,2013-09-04 14:00:00,
2013-09-04 07:04:00,58.5,56.2,29.97,SE,135,0.0,1.6,92,0.00,,---,0.00,VWS V14.01,2013-09-04 14:04:00,
2013-09-04 07:09:00,58.5,56.2,29.97,SE,135,2.7,2.7,92,0.00,,---,0.00,VWS V14.01,2013-09-04 14:09:00,
2013-09-04 07:10:00,58.5,56.2,29.97,SE,135,2.7,2.7,92,0.00,,---,0.00,VWS V14.01,2013-09-04 14:10:00,
2013-09-04 07:14:00,58.5,56.2,29.97,SE,135,2.7,2.7,92,0.00,,---,0.00,VWS V14.01,2013-09-04 14:14:00,
2013-09-04 07:19:00,58.5,56.2,30.00,SE,135,0.9,2.7,92,0.00,,---,0.00,VWS V14.01,2013-09-04 14:19:00,
2013-09-04 07:20:00,58.5,56.2,30.00,SE,135,0.9,2.7,92,0.00,,---,0.00,VWS V14.01,2013-09-04 14:20:00,
2013-09-04 07:24:00,58.5,56.2,30.00,SE,135,0.9,0.9,92,0.00,,---,0.00,VWS V14.01,2013-09-04 14:24:00,
2013-09-04 07:29:00,58.6,56.3,30.00,SE,135,0.0,0.9,92,0.00,,---,0.00,VWS V14.01,2013-09-04 14:29:00,
2013-09-04 07:30:00,58.6,56.3,29.97,SE,135,0.0,0.9,92,0.00,,---,0.00,VWS V14.01,2013-09-04 14:30:00,
2013-09-04 07:34:00,58.6,56.3,29.97,SE,135,0.0,0.0,92,0.00,,---,0.00,VWS V14.01,2013-09-04 14:34:00,
2013-09-04 07:39:00,58.8,56.5,29.97,ESE,112,0.0,0.0,92,0.00,,---,0.00,VWS V14.01,2013-09-04 14:39:00,
2013-09-04 07:40:00,58.8,56.5,29.97,ESE,112,0.0,0.0,92,0.00,,---,0.00,VWS V14.01,2013-09-04 14:40:00,
2013-09-04 07:44:00,58.8,56.5,29.97,ESE,112,0.0,0.0,92,0.00,,---,0.00,VWS V14.01,2013-09-04 14:44:00,
2013-09-04 07:49:00,59.0,56.7,30.00,ESE,112,0.0,0.0,92,0.00,,---,0.00,VWS V14.01,2013-09-04 14:49:00,
2013-09-04 07:50:00,59.0,56.7,30.00,SE,135,0.0,0.0,92,0.00,,---,0.00,VWS V14.01,2013-09-04 14:50:00,
2013-09-04 07:54:00,59.0,56.7,30.00,SE,135,0.0,0.0,92,0.00,,---,0.00,VWS V14.01,2013-09-04 14:54:00,
2013-09-04 07:59:00,59.0,56.7,30.00,SE,135,0.0,0.0,92,0.00,,---,0.00,VWS V14.01,2013-09-04 14:59:00,
2013-09-04 08:00:00,59.2,56.9,30.00,SE,135,0.0,0.0,92,0.00,,---,0.00,VWS V14.01,2013-09-04 15:00:00,
2013-09-04 08:04:00,59.2,56.9,30.00,SE,135,0.0,0.0,92,0.00,,---,0.00,VWS V14.01,2013-09-04 15:04:00,
2013-09-04 08:09:00,59.2,56.9,30.00,SE,135,0.0,0.0,92,0.00,,---,0.00,VWS V14.01,2013-09-04 15:09:00,
2013-09-04 08:10:00,59.2,56.9,30.00,SE,135,0.0,0.0,92,0.00,,---,0.00,VWS V14.01,2013-09-04 15:10:00,
2013-09-04 08:14:00,59.4,57.0,30.00,SE,135,0.0,0.0,92,0.00,,---,0.00,VWS V14.01,2013-09-04 15:14:00,
2013-09-04 08:19:00,59.4,57.0,30.00,SE,135,0.0,0.0,92,0.00,,---,0.00,VWS V14.01,2013-09-04 15:19:00,
2013-09-04 08:20:00,59.4,57.0,30.00,SE,135,0.0,0.0,92,0.00,,---,0.00,VWS V14.01,2013-09-04 15:20:00,
2013-09-04 08:24:00,59.4,57.0,30.00,SE,135,0.0,0.0,92,0.00,,---,0.00,VWS V14.01,2013-09-04 15:24:00,
2013-09-04 08:29:00,59.5,57.2,30.00,SE,135,0.0,0.0,92,0.00,,---,0.00,VWS V14.01,2013-09-04 15:29:00,
2013-09-04 08:30:00,59.5,57.2,30.00,SE,135,0.0,0.0,92,0.00,,---,0.00,VWS V14.01,2013-09-04 15:30:00,
2013-09-04 08:34:00,59.7,57.4,30.00,SE,135,0.0,0.0,92,0.00,,---,0.00,VWS V14.01,2013-09-04 15:34:00,
2013-09-04 08:39:00,59.7,57.4,30.00,SE,135,0.0,0.0,92,0.00,,---,0.00,VWS V14.01,2013-09-04 15:39:00,
2013-09-04 08:40:00,59.7,57.4,30.00,SE,135,0.0,0.0,92,0.00,,---,0.00,VWS V14.01,2013-09-04 15:40:00,
2013-09-04 08:44:00,59.9,57.6,30.00,SE,135,0.0,0.0,92,0.00,,---,0.00,VWS V14.01,2013-09-04 15:44:00,
2013-09-04 08:49:00,59.9,57.6,30.00,SE,135,1.3,1.3,92,0.00,,---,0.00,VWS V14.01,2013-09-04 15:49:00,
2013-09-04 08:50:00,59.9,57.6,30.00,SE,135,1.3,1.3,92,0.00,,---,0.00,VWS V14.01,2013-09-04 15:50:00,
2013-09-04 08:54:00,60.1,57.8,30.00,SE,135,0.0,1.3,92,0.00,,---,0.00,VWS V14.01,2013-09-04 15:54:00,
2013-09-04 08:59:00,60.3,57.9,30.00,SSE,158,0.0,1.3,92,0.00,,---,0.00,VWS V14.01,2013-09-04 15:59:00,
2013-09-04 09:00:00,60.3,57.9,30.00,SE,135,0.0,1.3,92,0.00,,---,0.00,VWS V14.01,2013-09-04 16:00:00,
2013-09-04 09:04:00,60.4,58.1,30.00,SE,135,0.0,0.0,92,0.00,,---,0.00,VWS V14.01,2013-09-04 16:04:00,
2013-09-04 09:09:00,60.6,58.3,30.00,SE,135,0.0,0.0,92,0.00,,---,0.00,VWS V14.01,2013-09-04 16:09:00,
2013-09-04 09:10:00,60.6,58.3,30.00,SE,135,0.0,0.0,92,0.00,,---,0.00,VWS V14.01,2013-09-04 16:10:00,
2013-09-04 09:14:00,60.6,58.3,30.00,SE,135,0.0,0.0,92,0.00,,---,0.00,VWS V14.01,2013-09-04 16:14:00,
2013-09-04 09:19:00,61.0,58.6,30.00,SE,135,0.0,0.0,92,0.00,,---,0.00,VWS V14.01,2013-09-04 16:19:00,
2013-09-04 09:20:00,61.0,58.6,30.00,SE,135,0.0,0.0,92,0.00,,---,0.00,VWS V14.01,2013-09-04 16:20:00,
2013-09-04 09:24:00,61.2,58.8,30.00,SE,135,0.0,0.0,92,0.00,,---,0.00,VWS V14.01,2013-09-04 16:24:00,
2013-09-04 09:29:00,61.3,59.0,30.00,SE,135,1.6,1.6,92,0.00,,---,0.00,VWS V14.01,2013-09-04 16:29:00,
2013-09-04 09:30:00,61.3,59.0,30.00,SE,135,1.6,1.6,92,0.00,,---,0.00,VWS V14.01,2013-09-04 16:30:00,
2013-09-04 09:34:00,61.5,59.2,30.00,SE,135,0.0,1.6,92,0.00,,---,0.00,VWS V14.01,2013-09-04 16:34:00,
2013-09-04 09:39:00,61.9,59.5,30.00,SE,135,0.0,1.6,92,0.00,,---,0.00,VWS V14.01,2013-09-04 16:39:00,
2013-09-04 09:40:00,61.9,59.5,30.00,SE,135,0.0,1.6,92,0.00,,---,0.00,VWS V14.01,2013-09-04 16:40:00,
2013-09-04 09:44:00,62.1,59.7,30.00,SE,135,0.9,0.9,92,0.00,,---,0.00,VWS V14.01,2013-09-04 16:44:00,
2013-09-04 09:49:00,62.1,59.7,30.00,SE,135,0.0,0.9,92,0.00,,---,0.00,VWS V14.01,2013-09-04 16:49:00,
2013-09-04 09:50:00,62.1,59.7,30.00,SE,135,0.0,0.9,92,0.00,,---,0.00,VWS V14.01,2013-09-04 16:50:00,
2013-09-04 09:54:00,62.2,59.9,30.00,SE,135,0.0,0.0,92,0.00,,---,0.00,VWS V14.01,2013-09-04 16:54:00,
2013-09-04 09:59:00,62.4,60.1,30.00,SE,135,0.0,0.0,92,0.00,,---,0.00,VWS V14.01,2013-09-04 16:59:00,
2013-09-04 10:00:00,62.4,60.1,30.00,SE,135,0.0,0.0,92,0.00,,---,0.00,VWS V14.01,2013-09-04 17:00:00,
2013-09-04 10:04:00,62.6,59.9,30.00,SE,135,0.0,0.0,91,0.00,,---,0.00,VWS V14.01,2013-09-04 17:04:00,
2013-09-04 10:09:00,62.6,59.9,30.00,SE,135,1.1,1.1,91,0.00,,---,0.00,VWS V14.01,2013-09-04 17:09:00,
2013-09-04 10:10:00,62.6,59.9,30.00,SE,135,1.1,1.1,91,0.00,,---,0.00,VWS V14.01,2013-09-04 17:10:00,
2013-09-04 10:14:00,62.8,60.1,30.03,SE,135,1.1,1.1,91,0.00,,---,0.00,VWS V14.01,2013-09-04 17:14:00,
2013-09-04 10:19:00,62.8,60.1,30.03,SSE,158,0.0,1.6,91,0.00,,---,0.00,VWS V14.01,2013-09-04 17:19:00,
2013-09-04 10:20:00,62.8,60.1,30.03,SSE,158,0.0,1.6,91,0.00,,---,0.00,VWS V14.01,2013-09-04 17:20:00,
2013-09-04 10:24:00,63.0,60.3,30.03,SE,135,0.0,0.0,91,0.00,,---,0.00,VWS V14.01,2013-09-04 17:24:00,
2013-09-04 10:29:00,63.0,60.3,30.03,SE,135,0.0,2.0,91,0.00,,---,0.00,VWS V14.01,2013-09-04 17:29:00,
2013-09-04 10:30:00,63.0,60.3,30.03,SE,135,2.5,2.5,91,0.00,,---,0.00,VWS V14.01,2013-09-04 17:30:00,
2013-09-04 10:34:00,63.1,60.5,30.03,SSE,158,0.0,2.7,91,0.00,,---,0.00,VWS V14.01,2013-09-04 17:34:00,
2013-09-04 10:39:00,63.3,60.3,30.03,SSE,158,0.0,2.7,90,0.00,,---,0.00,VWS V14.01,2013-09-04 17:39:00,
2013-09-04 10:40:00,63.3,60.3,30.03,SSE,158,0.0,2.7,90,0.00,,---,0.00,VWS V14.01,2013-09-04 17:40:00,
2013-09-04 10:44:00,63.7,60.7,30.03,SSW,202,0.0,0.0,90,0.00,,---,0.00,VWS V14.01,2013-09-04 17:44:00,
2013-09-04 10:49:00,63.9,60.9,30.03,SE,135,1.3,1.3,90,0.00,,---,0.00,VWS V14.01,2013-09-04 17:49:00,
2013-09-04 10:50:00,63.9,60.9,30.03,SE,135,1.3,1.3,90,0.00,,---,0.00,VWS V14.01,2013-09-04 17:50:00,
2013-09-04 10:54:00,64.0,61.0,30.03,SSW,202,1.3,1.3,90,0.00,,---,0.00,VWS V14.01,2013-09-04 17:54:00,
2013-09-04 10:59:00,64.2,61.2,30.03,SSE,158,0.0,1.3,90,0.00,,---,0.00,VWS V14.01,2013-09-04 17:59:00,
2013-09-04 11:00:00,64.2,61.2,30.03,SSE,158,0.0,1.3,90,0.00,,---,0.00,VWS V14.01,2013-09-04 18:00:00,
2013-09-04 11:04:00,64.2,61.2,30.03,SE,135,0.0,0.0,90,0.00,,---,0.00,VWS V14.01,2013-09-04 18:04:00,
2013-09-04 11:09:00,64.2,60.9,30.03,SSW,202,0.0,0.0,89,0.00,,---,0.00,VWS V14.01,2013-09-04 18:09:00,
2013-09-04 11:10:00,64.2,60.9,30.03,SSW,202,0.0,0.0,89,0.00,,---,0.00,VWS V14.01,2013-09-04 18:10:00,
2013-09-04 11:14:00,64.4,61.1,30.03,SE,135,2.9,2.9,89,0.00,,---,0.00,VWS V14.01,2013-09-04 18:14:00,
2013-09-04 11:20:00,64.8,61.1,30.03,South,180,0.0,2.9,88,0.00,,---,0.00,VWS V14.01,2013-09-04 18:20:00,
2013-09-04 11:25:00,65.3,61.7,30.03,SE,135,2.0,2.0,88,0.00,,---,0.00,VWS V14.01,2013-09-04 18:25:00,
2013-09-04 11:30:00,65.7,61.4,30.03,SE,135,1.1,2.0,86,0.00,,---,0.00,VWS V14.01,2013-09-04 18:30:00,
2013-09-04 11:35:00,65.7,61.0,30.03,SE,135,3.1,3.1,85,0.00,,---,0.00,VWS V14.01,2013-09-04 18:35:00,
2013-09-04 11:40:00,65.7,60.7,30.03,SE,135,2.5,3.6,84,0.00,,---,0.00,VWS V14.01,2013-09-04 18:40:00,
2013-09-04 11:45:00,65.7,60.7,30.03,SW,225,0.0,1.3,84,0.00,,---,0.00,VWS V14.01,2013-09-04 18:45:00,
2013-09-04 11:50:00,65.7,60.7,30.03,SSE,158,0.0,1.3,84,0.00,,---,0.00,VWS V14.01,2013-09-04 18:50:00,
2013-09-04 11:55:00,65.5,60.2,30.03,NNW,338,1.3,1.6,83,0.00,,---,0.00,VWS V14.01,2013-09-04 18:55:00,
2013-09-04 12:00:00,65.3,59.7,30.03,WNW,292,4.3,4.3,82,0.00,,---,0.00,VWS V14.01,2013-09-04 19:00:00,
2013-09-04 12:05:00,65.1,59.8,30.03,WNW,292,3.1,4.3,83,0.00,,---,0.00,VWS V14.01,2013-09-04 19:05:00,
2013-09-04 12:10:00,64.9,59.7,30.03,NNW,338,1.3,4.7,83,0.00,,---,0.00,VWS V14.01,2013-09-04 19:10:00,
2013-09-04 12:15:00,64.9,59.7,30.03,NW,315,2.9,2.9,83,0.00,,---,0.00,VWS V14.01,2013-09-04 19:15:00,
2013-09-04 12:20:00,64.8,59.5,30.03,WNW,292,1.1,4.0,83,0.00,,---,0.00,VWS V14.01,2013-09-04 19:20:00,
2013-09-04 12:25:00,64.8,59.5,30.03,WNW,292,5.6,5.6,83,0.00,,---,0.00,VWS V14.01,2013-09-04 19:25:00,
2013-09-04 12:30:00,64.8,59.5,30.03,NW,315,6.5,6.5,83,0.00,,---,0.00,VWS V14.01,2013-09-04 19:30:00,
2013-09-04 12:35:00,64.9,59.7,30.03,WNW,292,3.1,6.5,83,0.00,,---,0.00,VWS V14.01,2013-09-04 19:35:00,
2013-09-04 12:40:00,65.1,59.8,30.03,WSW,248,0.0,6.5,83,0.00,,---,0.00,VWS V14.01,2013-09-04 19:40:00,
2013-09-04 12:45:00,65.3,59.7,30.00,WSW,248,0.0,0.0,82,0.00,,---,0.00,VWS V14.01,2013-09-04 19:45:00,
2013-09-04 12:50:00,65.7,60.0,30.00,WNW,292,2.9,2.9,82,0.00,,---,0.00,VWS V14.01,2013-09-04 19:50:00,
2013-09-04 12:55:00,65.8,60.2,30.00,WSW,248,3.8,3.8,82,0.00,,---,0.00,VWS V14.01,2013-09-04 19:55:00,
2013-09-04 13:00:00,67.1,60.7,30.03,WSW,248,1.6,1.6,80,0.00,,---,0.00,VWS V14.01,2013-09-04 20:00:00,
2013-09-04 13:05:00,67.5,60.4,30.03,SW,225,2.2,2.2,78,0.00,,---,0.00,VWS V14.01,2013-09-04 20:05:00,
2013-09-04 13:10:00,66.9,59.5,30.03,WNW,292,4.0,4.0,77,0.00,,---,0.00,VWS V14.01,2013-09-04 20:10:00,
2013-09-04 13:15:00,67.5,60.0,30.00,WNW,292,4.0,4.0,77,0.00,,---,0.00,VWS V14.01,2013-09-04 20:15:00,
2013-09-04 13:20:00,67.1,59.3,30.00,NW,315,3.4,3.4,76,0.00,,---,0.00,VWS V14.01,2013-09-04 20:20:00,
2013-09-04 13:25:00,66.6,58.8,30.00,WNW,292,1.1,3.4,76,0.00,,---,0.00,VWS V14.01,2013-09-04 20:25:00,
2013-09-04 13:30:00,66.4,58.6,30.00,WNW,292,1.1,1.1,76,0.00,,---,0.00,VWS V14.01,2013-09-04 20:30:00,
2013-09-04 13:35:00,66.4,58.2,30.00,NNW,338,2.7,2.7,75,0.00,,---,0.00,VWS V14.01,2013-09-04 20:35:00,
2013-09-04 13:40:00,66.2,58.0,30.00,WNW,292,0.0,0.0,75,0.00,,---,0.00,VWS V14.01,2013-09-04 20:40:00,
2013-09-04 13:45:00,66.2,58.0,30.00,West,270,0.0,2.7,75,0.00,,---,0.00,VWS V14.01,2013-09-04 20:45:00,
2013-09-04 13:50:00,66.2,58.0,30.00,WNW,292,2.7,2.7,75,0.00,,---,0.00,VWS V14.01,2013-09-04 20:50:00,
2013-09-04 13:55:00,66.0,57.9,30.00,WNW,292,2.5,3.1,75,0.00,,---,0.00,VWS V14.01,2013-09-04 20:55:00,
2013-09-04 14:00:00,66.2,58.0,30.00,SW,225,2.0,2.0,75,0.00,,---,0.00,VWS V14.01,2013-09-04 21:00:00,
2013-09-04 14:05:00,66.2,58.0,30.00,WSW,248,2.5,2.9,75,0.00,,---,0.00,VWS V14.01,2013-09-04 21:05:00,
2013-09-04 14:10:00,66.0,57.9,30.00,NNW,338,4.7,4.7,75,0.00,,---,0.00,VWS V14.01,2013-09-04 21:10:00,
2013-09-04 14:15:00,66.0,57.9,30.00,WNW,292,5.4,5.4,75,0.00,,---,0.00,VWS V14.01,2013-09-04 21:15:00,
2013-09-04 14:20:00,66.0,57.9,30.00,SSW,202,0.0,0.0,75,0.00,,---,0.00,VWS V14.01,2013-09-04 21:20:00,
2013-09-04 14:25:00,66.0,57.9,30.00,NNW,338,5.6,5.6,75,0.00,,---,0.00,VWS V14.01,2013-09-04 21:25:00,
2013-09-04 14:30:00,66.0,57.9,30.03,WNW,292,1.6,1.6,75,0.00,,---,0.00,VWS V14.01,2013-09-04 21:30:00,
2013-09-04 14:35:00,66.0,57.9,30.03,WNW,292,3.1,4.9,75,0.00,,---,0.00,VWS V14.01,2013-09-04 21:35:00,
2013-09-04 14:40:00,66.0,57.9,30.03,WNW,292,1.3,1.3,75,0.00,,---,0.00,VWS V14.01,2013-09-04 21:40:00,
2013-09-04 14:45:00,65.8,57.7,30.03,WNW,292,3.8,3.8,75,0.00,,---,0.00,VWS V14.01,2013-09-04 21:45:00,
2013-09-04 14:50:00,65.8,57.7,30.03,West,270,2.5,2.5,75,0.00,,---,0.00,VWS V14.01,2013-09-04 21:50:00,
2013-09-04 14:55:00,66.0,57.9,30.03,WNW,292,0.9,5.4,75,0.00,,---,0.00,VWS V14.01,2013-09-04 21:55:00,
2013-09-04 15:00:00,66.2,58.0,30.03,WNW,292,0.0,0.0,75,0.00,,---,0.00,VWS V14.01,2013-09-04 22:00:00,
2013-09-04 15:05:00,66.4,58.2,30.03,WNW,292,0.0,4.9,75,0.00,,---,0.00,VWS V14.01,2013-09-04 22:05:00,
2013-09-04 15:10:00,66.4,58.2,30.00,WNW,292,3.1,3.8,75,0.00,,---,0.00,VWS V14.01,2013-09-04 22:10:00,
2013-09-04 15:15:00,66.7,58.6,30.00,West,270,3.4,3.8,75,0.00,,---,0.00,VWS V14.01,2013-09-04 22:15:00,
2013-09-04 15:20:00,66.7,58.2,30.00,WNW,292,1.3,4.9,74,0.00,,---,0.00,VWS V14.01,2013-09-04 22:20:00,
2013-09-04 15:25:00,66.7,58.2,30.00,WSW,248,0.0,4.9,74,0.00,,---,0.00,VWS V14.01,2013-09-04 22:25:00,
2013-09-04 15:30:00,66.7,58.6,30.03,NNW,338,5.4,5.4,75,0.00,,---,0.00,VWS V14.01,2013-09-04 22:30:00,
2013-09-04 15:35:00,66.7,58.6,30.03,West,270,1.3,5.4,75,0.00,,---,0.00,VWS V14.01,2013-09-04 22:35:00,
2013-09-04 15:40:00,66.9,58.4,30.03,SSW,202,2.5,2.9,74,0.00,,---,0.00,VWS V14.01,2013-09-04 22:40:00,
2013-09-04 15:45:00,66.9,58.4,30.00,WNW,292,2.5,2.9,74,0.00,,---,0.00,VWS V14.01,2013-09-04 22:45:00,
2013-09-04 15:50:00,66.9,58.4,30.00,WNW,292,2.5,2.9,74,0.00,,---,0.00,VWS V14.01,2013-09-04 22:50:00,
2013-09-04 15:51:00,66.9,58.4,30.00,WNW,292,2.5,2.5,74,0.00,,---,0.00,VWS V14.01,2013-09-04 22:51:00,
2013-09-04 15:56:00,66.9,58.4,30.00,NNW,338,3.6,3.6,74,0.00,,---,0.00,VWS V14.01,2013-09-04 22:56:00,
2013-09-04 16:00:00,66.6,58.4,30.03,NNW,338,2.7,4.9,75,0.00,,---,0.00,VWS V14.01,2013-09-04 23:00:00,
2013-09-04 16:01:00,66.6,58.4,30.03,WNW,292,2.9,2.9,75,0.00,,---,0.00,VWS V14.01,2013-09-04 23:01:00,
2013-09-04 16:06:00,66.4,58.2,30.03,North,0,5.6,6.0,75,0.00,,---,0.00,VWS V14.01,2013-09-04 23:06:00,
2013-09-04 16:10:00,66.2,58.0,30.03,NW,315,4.3,7.6,75,0.00,,---,0.00,VWS V14.01,2013-09-04 23:10:00,
2013-09-04 16:11:00,66.2,58.0,30.03,WNW,292,6.0,6.0,75,0.00,,---,0.00,VWS V14.01,2013-09-04 23:11:00,
2013-09-04 16:16:00,66.0,58.2,30.00,WNW,292,3.4,7.6,76,0.00,,---,0.00,VWS V14.01,2013-09-04 23:16:00,
2013-09-04 16:20:00,66.2,58.4,30.00,NNW,338,0.0,7.6,76,0.00,,---,0.00,VWS V14.01,2013-09-04 23:20:00,
2013-09-04 16:21:00,66.2,58.4,30.00,NNW,338,0.0,0.0,76,0.00,,---,0.00,VWS V14.01,2013-09-04 23:21:00,
2013-09-04 16:26:00,66.6,58.8,30.00,NNW,338,1.3,3.4,76,0.00,,---,0.00,VWS V14.01,2013-09-04 23:26:00,
2013-09-04 16:30:00,66.7,58.9,30.00,WNW,292,1.6,3.4,76,0.00,,---,0.00,VWS V14.01,2013-09-04 23:30:00,
2013-09-04 16:31:00,66.7,58.9,30.00,WNW,292,2.5,2.5,76,0.00,,---,0.00,VWS V14.01,2013-09-04 23:31:00,
2013-09-04 16:36:00,66.7,58.9,30.00,North,0,2.9,3.8,76,0.00,,---,0.00,VWS V14.01,2013-09-04 23:36:00,
2013-09-04 16:40:00,66.7,58.9,30.00,NNW,338,2.0,4.0,76,0.00,,---,0.00,VWS V14.01,2013-09-04 23:40:00,
2013-09-04 16:41:00,66.7,58.9,30.00,NW,315,2.2,2.2,76,0.00,,---,0.00,VWS V14.01,2013-09-04 23:41:00,
2013-09-04 16:46:00,66.7,58.9,30.00,NNW,338,2.7,5.8,76,0.00,,---,0.00,VWS V14.01,2013-09-04 23:46:00,
2013-09-04 16:50:00,66.7,58.6,30.00,WNW,292,3.6,5.8,75,0.00,,---,0.00,VWS V14.01,2013-09-04 23:50:00,
2013-09-04 16:51:00,66.7,58.6,30.00,WNW,292,4.3,4.3,75,0.00,,---,0.00,VWS V14.01,2013-09-04 23:51:00,
2013-09-04 16:56:00,66.7,58.6,30.00,NNW,338,2.0,4.3,75,0.00,,---,0.00,VWS V14.01,2013-09-04 23:56:00,
2013-09-04 17:00:00,66.9,58.8,30.00,NNW,338,1.3,4.3,75,0.00,,---,0.00,VWS V14.01,2013-09-05 00:00:00,
2013-09-04 17:01:00,66.9,58.8,30.00,NNW,338,2.0,2.0,75,0.00,,---,0.00,VWS V14.01,2013-09-05 00:01:00,
2013-09-04 17:06:00,67.1,58.9,30.00,NNW,338,2.2,3.4,75,0.00,,---,0.00,VWS V14.01,2013-09-05 00:06:00,
2013-09-04 17:10:00,67.3,58.7,30.00,NNW,338,2.9,3.4,74,0.00,,---,0.00,VWS V14.01,2013-09-05 00:10:00,
2013-09-04 17:11:00,67.3,58.7,30.00,NNW,338,2.9,2.9,74,0.00,,---,0.00,VWS V14.01,2013-09-05 00:11:00,
2013-09-04 17:16:00,66.9,58.4,30.00,NW,315,3.6,4.3,74,0.00,,---,0.00,VWS V14.01,2013-09-05 00:16:00,
2013-09-04 17:20:00,67.3,58.7,30.00,NNW,338,2.7,4.3,74,0.00,,---,0.00,VWS V14.01,2013-09-05 00:20:00,
2013-09-04 17:21:00,67.1,58.5,30.00,WNW,292,1.3,2.7,74,0.00,,---,0.00,VWS V14.01,2013-09-05 00:21:00,
2013-09-04 17:26:00,66.9,58.4,30.00,WNW,292,3.8,4.7,74,0.00,,---,0.00,VWS V14.01,2013-09-05 00:26:00,
2013-09-04 17:30:00,66.9,58.4,30.00,NW,315,4.3,4.7,74,0.00,,---,0.00,VWS V14.01,2013-09-05 00:30:00,
2013-09-04 17:31:00,66.7,58.2,30.00,NNW,338,2.9,4.3,74,0.00,,---,0.00,VWS V14.01,2013-09-05 00:31:00,
2013-09-04 17:36:00,66.7,58.2,30.00,NW,315,4.0,4.3,74,0.00,,---,0.00,VWS V14.01,2013-09-05 00:36:00,
2013-09-04 17:40:00,66.7,58.2,30.00,WNW,292,3.1,4.3,74,0.00,,---,0.00,VWS V14.01,2013-09-05 00:40:00,
2013-09-04 17:41:00,66.7,58.2,30.00,WNW,292,2.7,3.4,74,0.00,,---,0.00,VWS V14.01,2013-09-05 00:41:00,
2013-09-04 17:46:00,66.9,58.8,29.97,NNW,338,2.7,3.4,75,0.00,,---,0.00,VWS V14.01,2013-09-05 00:46:00,
2013-09-04 17:50:00,67.1,58.9,29.97,NW,315,1.1,3.4,75,0.00,,---,0.00,VWS V14.01,2013-09-05 00:50:00,
2013-09-04 17:51:00,67.1,58.9,29.97,NW,315,1.6,1.6,75,0.00,,---,0.00,VWS V14.01,2013-09-05 00:51:00,
2013-09-04 17:56:00,67.1,58.5,29.97,WNW,292,1.6,2.9,74,0.00,,---,0.00,VWS V14.01,2013-09-05 00:56:00,
2013-09-04 18:00:00,67.1,58.5,29.97,WNW,292,0.0,2.9,74,0.00,,---,0.00,VWS V14.01,2013-09-05 01:00:00,
2013-09-04 18:01:00,67.1,58.9,29.97,WNW,292,0.0,0.0,75,0.00,,---,0.00,VWS V14.01,2013-09-05 01:01:00,
2013-09-04 18:06:00,66.7,58.6,29.97,WNW,292,0.9,1.6,75,0.00,,---,0.00,VWS V14.01,2013-09-05 01:06:00,
2013-09-04 18:10:00,66.7,58.6,29.97,NNW,338,2.9,2.9,75,0.00,,---,0.00,VWS V14.01,2013-09-05 01:10:00,
2013-09-04 18:11:00,66.7,58.2,29.97,WNW,292,0.0,2.9,74,0.00,,---,0.00,VWS V14.01,2013-09-05 01:11:00,
2013-09-04 18:16:00,66.6,58.0,29.97,NNW,338,0.9,2.9,74,0.00,,---,0.00,VWS V14.01,2013-09-05 01:16:00,
2013-09-04 18:20:00,66.4,57.8,29.97,NW,315,0.9,2.9,74,0.00,,---,0.00,VWS V14.01,2013-09-05 01:20:00,
2013-09-04 18:21:00,66.4,57.8,29.97,NNW,338,0.0,0.9,74,0.00,,---,0.00,VWS V14.01,2013-09-05 01:21:00,
2013-09-04 18:26:00,66.2,57.7,29.97,NNW,338,2.2,2.5,74,0.00,,---,0.00,VWS V14.01,2013-09-05 01:26:00,
2013-09-04 18:30:00,66.2,57.7,29.97,WNW,292,0.0,2.5,74,0.00,,---,0.00,VWS V14.01,2013-09-05 01:30:00,
2013-09-04 18:31:00,66.2,57.7,29.97,WSW,248,0.0,0.0,74,0.00,,---,0.00,VWS V14.01,2013-09-05 01:31:00,
2013-09-04 18:36:00,66.2,58.0,29.97,WNW,292,1.3,1.6,75,0.00,,---,0.00,VWS V14.01,2013-09-05 01:36:00,
2013-09-04 18:40:00,66.2,58.0,29.97,West,270,0.0,2.2,75,0.00,,---,0.00,VWS V14.01,2013-09-05 01:40:00,
2013-09-04 18:41:00,66.0,57.9,29.97,West,270,0.0,0.0,75,0.00,,---,0.00,VWS V14.01,2013-09-05 01:41:00,
2013-09-04 18:46:00,65.8,57.7,29.97,WNW,292,0.0,0.0,75,0.00,,---,0.00,VWS V14.01,2013-09-05 01:46:00,
2013-09-04 18:50:00,65.8,58.1,29.97,WNW,292,0.0,0.0,76,0.00,,---,0.00,VWS V14.01,2013-09-05 01:50:00,
2013-09-04 18:51:00,65.8,58.1,29.97,WNW,292,0.0,0.0,76,0.00,,---,0.00,VWS V14.01,2013-09-05 01:51:00,
2013-09-04 18:56:00,65.7,57.9,29.97,NW,315,1.1,1.1,76,0.00,,---,0.00,VWS V14.01,2013-09-05 01:56:00,
2013-09-04 19:00:00,65.5,57.7,29.97,NW,315,0.0,1.3,76,0.00,,---,0.00,VWS V14.01,2013-09-05 02:00:00,
2013-09-04 19:01:00,65.3,57.5,29.97,NW,315,0.0,0.0,76,0.00,,---,0.00,VWS V14.01,2013-09-05 02:01:00,
2013-09-04 19:06:00,65.1,57.4,29.97,NW,315,2.0,2.0,76,0.00,,---,0.00,VWS V14.01,2013-09-05 02:06:00,
2013-09-04 19:10:00,65.3,57.5,29.97,WNW,292,0.0,2.5,76,0.00,,---,0.00,VWS V14.01,2013-09-05 02:10:00,
2013-09-04 19:11:00,65.3,57.5,29.97,WNW,292,0.0,0.0,76,0.00,,---,0.00,VWS V14.01,2013-09-05 02:11:00,
2013-09-04 19:16:00,64.9,57.2,29.97,NNW,338,0.0,2.9,76,0.00,,---,0.00,VWS V14.01,2013-09-05 02:16:00,
2013-09-04 19:20:00,64.8,57.4,29.97,WNW,292,0.0,2.9,77,0.00,,---,0.00,VWS V14.01,2013-09-05 02:20:00,
2013-09-04 19:21:00,64.8,57.4,29.97,WNW,292,0.0,0.0,77,0.00,,---,0.00,VWS V14.01,2013-09-05 02:21:00,
2013-09-04 19:26:00,64.8,57.4,29.97,WNW,292,0.0,0.0,77,0.00,,---,0.00,VWS V14.01,2013-09-05 02:26:00,
2013-09-04 19:30:00,64.8,57.4,29.97,WNW,292,0.0,0.0,77,0.00,,---,0.00,VWS V14.01,2013-09-05 02:30:00,
2013-09-04 19:31:00,64.8,57.4,29.97,WNW,292,0.0,0.0,77,0.00,,---,0.00,VWS V14.01,2013-09-05 02:31:00,
2013-09-04 19:36:00,64.4,57.0,29.97,WNW,292,0.0,0.0,77,0.00,,---,0.00,VWS V14.01,2013-09-05 02:36:00,
2013-09-04 19:40:00,64.4,57.4,29.97,WSW,248,0.0,0.0,78,0.00,,---,0.00,VWS V14.01,2013-09-05 02:40:00,
2013-09-04 19:41:00,64.4,57.4,29.97,WSW,248,0.0,0.0,78,0.00,,---,0.00,VWS V14.01,2013-09-05 02:41:00,
2013-09-04 19:46:00,64.2,57.2,29.97,WSW,248,0.0,0.0,78,0.00,,---,0.00,VWS V14.01,2013-09-05 02:46:00,
2013-09-04 20:54:00,62.1,56.5,30.00,SE,135,0.0,0.0,82,0.00,,---,0.00,VWS V14.01,2013-09-05 03:54:00,
2013-09-04 21:00:00,62.1,56.5,30.00,SE,135,0.0,0.0,82,0.00,,---,0.00,VWS V14.01,2013-09-05 04:00:00,
2013-09-04 21:01:00,62.1,56.5,30.00,SE,135,0.0,0.0,82,0.00,,---,0.00,VWS V14.01,2013-09-05 04:01:00,
2013-09-04 21:02:00,62.1,56.5,30.00,SE,135,0.0,0.0,82,0.00,,---,0.00,VWS V14.01,2013-09-05 04:02:00,
2013-09-04 21:03:00,62.1,56.5,30.00,SE,135,0.0,0.0,82,0.00,,---,0.00,VWS V14.01,2013-09-05 04:03:00,
2013-09-04 21:05:00,61.9,56.3,30.00,SE,135,0.0,0.0,82,0.00,,---,0.00,VWS V14.01,2013-09-05 04:05:00,
2013-09-04 21:10:00,61.7,56.2,30.00,SE,135,2.7,2.7,82,0.00,,---,0.00,VWS V14.01,2013-09-05 04:10:00,
2013-09-04 21:15:00,61.7,56.2,30.00,SE,135,1.1,2.7,82,0.00,,---,0.00,VWS V14.01,2013-09-05 04:15:00,
2013-09-04 21:20:00,61.5,56.0,30.00,SE,135,0.0,0.0,82,0.00,,---,0.00,VWS V14.01,2013-09-05 04:20:00,
2013-09-04 21:25:00,61.5,56.0,30.00,SE,135,0.0,1.3,82,0.00,,---,0.00,VWS V14.01,2013-09-05 04:25:00,
2013-09-04 21:30:00,61.3,55.8,30.00,SE,135,0.0,0.0,82,0.00,,---,0.00,VWS V14.01,2013-09-05 04:30:00,
2013-09-04 21:35:00,61.3,55.8,30.00,SE,135,0.0,0.0,82,0.00,,---,0.00,VWS V14.01,2013-09-05 04:35:00,
2013-09-04 21:40:00,61.2,55.6,30.00,SE,135,0.0,0.0,82,0.00,,---,0.00,VWS V14.01,2013-09-05 04:40:00,
2013-09-04 21:45:00,61.2,56.0,30.00,SE,135,0.0,0.0,83,0.00,,---,0.00,VWS V14.01,2013-09-05 04:45:00,
2013-09-04 21:50:00,61.2,56.0,30.00,ESE,112,0.0,0.0,83,0.00,,---,0.00,VWS V14.01,2013-09-05 04:50:00,
2013-09-04 21:55:00,61.2,56.0,30.00,ESE,112,0.0,0.0,83,0.00,,---,0.00,VWS V14.01,2013-09-05 04:55:00,
2013-09-04 22:00:00,61.0,55.8,30.00,ESE,112,0.0,0.0,83,0.00,,---,0.00,VWS V14.01,2013-09-05 05:00:00,
2013-09-04 22:05:00,61.0,55.8,30.00,ESE,112,0.0,0.0,83,0.00,,---,0.00,VWS V14.01,2013-09-05 05:05:00,
2013-09-04 22:10:00,60.8,55.9,30.00,ESE,112,0.0,0.0,84,0.00,,---,0.00,VWS V14.01,2013-09-05 05:10:00,
2013-09-04 22:15:00,60.8,55.9,30.00,ESE,112,0.0,0.0,84,0.00,,---,0.00,VWS V14.01,2013-09-05 05:15:00,
2013-09-04 22:20:00,60.6,55.8,30.00,ESE,112,0.0,0.0,84,0.00,,---,0.00,VWS V14.01,2013-09-05 05:20:00,
2013-09-04 22:25:00,60.6,56.1,30.00,ESE,112,0.0,0.0,85,0.00,,---,0.00,VWS V14.01,2013-09-05 05:25:00,
2013-09-04 22:30:00,60.4,55.9,30.00,ESE,112,0.0,0.0,85,0.00,,---,0.00,VWS V14.01,2013-09-05 05:30:00,
2013-09-04 22:36:00,60.4,55.9,30.00,ESE,112,0.0,0.0,85,0.00,,---,0.00,VWS V14.01,2013-09-05 05:36:00,
2013-09-04 22:40:00,60.4,55.9,30.00,ESE,112,0.0,0.0,85,0.00,,---,0.00,VWS V14.01,2013-09-05 05:40:00,
2013-09-04 22:41:00,60.4,55.9,30.00,ESE,112,0.0,0.0,85,0.00,,---,0.00,VWS V14.01,2013-09-05 05:41:00,
2013-09-04 22:46:00,60.4,55.9,30.00,ESE,112,0.0,0.0,85,0.00,,---,0.00,VWS V14.01,2013-09-05 05:46:00,
2013-09-04 22:50:00,60.3,55.7,30.00,ESE,112,0.0,0.0,85,0.00,,---,0.00,VWS V14.01,2013-09-05 05:50:00,
2013-09-04 22:51:00,60.3,55.7,30.00,ESE,112,0.0,0.0,85,0.00,,---,0.00,VWS V14.01,2013-09-05 05:51:00,
2013-09-04 22:56:00,60.3,56.1,30.00,ESE,112,0.0,0.0,86,0.00,,---,0.00,VWS V14.01,2013-09-05 05:56:00,
2013-09-04 23:00:00,60.3,56.1,30.00,ESE,112,0.0,0.0,86,0.00,,---,0.00,VWS V14.01,2013-09-05 06:00:00,
2013-09-04 23:01:00,60.4,56.2,30.00,ESE,112,0.0,0.0,86,0.00,,---,0.00,VWS V14.01,2013-09-05 06:01:00,
2013-09-04 23:06:00,60.4,56.2,30.00,ESE,112,0.0,0.0,86,0.00,,---,0.00,VWS V14.01,2013-09-05 06:06:00,
2013-09-04 23:10:00,60.3,56.1,30.00,ESE,112,0.0,0.0,86,0.00,,---,0.00,VWS V14.01,2013-09-05 06:10:00,
2013-09-04 23:11:00,60.3,56.1,30.00,ESE,112,0.0,0.0,86,0.00,,---,0.00,VWS V14.01,2013-09-05 06:11:00,
2013-09-04 23:16:00,60.3,56.1,30.00,ESE,112,0.0,0.0,86,0.00,,---,0.00,VWS V14.01,2013-09-05 06:16:00,
2013-09-04 23:20:00,60.4,56.6,30.00,ESE,112,0.0,0.0,87,0.00,,---,0.00,VWS V14.01,2013-09-05 06:20:00,
2013-09-04 23:21:00,60.4,56.6,30.00,ESE,112,0.0,0.0,87,0.00,,---,0.00,VWS V14.01,2013-09-05 06:21:00,
2013-09-04 23:26:00,60.4,56.6,30.00,East,90,0.0,0.0,87,0.00,,---,0.00,VWS V14.01,2013-09-05 06:26:00,
2013-09-04 23:30:00,60.4,56.6,30.00,East,90,0.0,0.0,87,0.00,,---,0.00,VWS V14.01,2013-09-05 06:30:00,
2013-09-04 23:31:00,60.4,56.6,30.00,ESE,112,0.0,0.0,87,0.00,,---,0.00,VWS V14.01,2013-09-05 06:31:00,
2013-09-04 23:36:00,60.4,56.6,30.00,ESE,112,0.0,0.9,87,0.00,,---,0.00,VWS V14.01,2013-09-05 06:36:00,
2013-09-04 23:40:00,60.4,56.9,30.00,ENE,68,0.0,0.9,88,0.00,,---,0.00,VWS V14.01,2013-09-05 06:40:00,
2013-09-04 23:41:00,60.4,56.9,30.00,East,90,0.0,0.0,88,0.00,,---,0.00,VWS V14.01,2013-09-05 06:41:00,
2013-09-04 23:46:00,60.4,56.9,30.00,ESE,112,0.0,0.0,88,0.00,,---,0.00,VWS V14.01,2013-09-05 06:46:00,
2013-09-04 23:50:00,60.4,56.9,30.00,ESE,112,0.0,0.0,88,0.00,,---,0.00,VWS V14.01,2013-09-05 06:50:00,
2013-09-04 23:51:00,60.4,56.9,30.00,ESE,112,0.0,0.0,88,0.00,,---,0.00,VWS V14.01,2013-09-05 06:51:00,
2013-09-04 23:56:00,60.4,56.9,30.00,ESE,112,0.0,0.0,88,0.00,,---,0.00,VWS V14.01,2013-09-05 06:56:00,